sensor_id;sensor_type;location;lat;lon;timestamp;P1;durP1;ratioP1;P2;durP2;ratioP2
2257;SDS011;1136;51.574;7.706;2023-02-01T00:00:59;23.50;;;10.40;;
2257;SDS011;1136;51.574;7.706;2023-02-01T00:03:25;19.07;;;10.67;;
2257;SDS011;1136;51.574;7.706;2023-02-01T00:05:58;26.50;;;13.73;;
2257;SDS011;1136;51.574;7.706;2023-02-01T00:08:26;23.90;;;12.40;;
2257;SDS011;1136;51.574;7.706;2023-02-01T00:11:00;25.17;;;12.77;;
2257;SDS011;1136;51.574;7.706;2023-02-01T00:13:28;27.70;;;13.23;;
2257;SDS011;1136;51.574;7.706;2023-02-01T00:16:07;24.10;;;11.80;;
2257;SDS011;1136;51.574;7.706;2023-02-01T00:18:35;18.33;;;12.17;;
2257;SDS011;1136;51.574;7.706;2023-02-01T00:21:02;32.90;;;14.80;;
2257;SDS011;1136;51.574;7.706;2023-02-01T00:23:31;25.47;;;15.43;;
2257;SDS011;1136;51.574;7.706;2023-02-01T00:26:00;31.53;;;14.40;;
2257;SDS011;1136;51.574;7.706;2023-02-01T00:28:27;29.13;;;14.67;;
2257;SDS011;1136;51.574;7.706;2023-02-01T00:30:57;31.10;;;15.10;;
2257;SDS011;1136;51.574;7.706;2023-02-01T00:33:25;28.23;;;13.97;;
2257;SDS011;1136;51.574;7.706;2023-02-01T00:35:55;25.30;;;13.70;;
2257;SDS011;1136;51.574;7.706;2023-02-01T00:38:24;23.33;;;13.23;;
2257;SDS011;1136;51.574;7.706;2023-02-01T00:40:51;28.93;;;15.30;;
2257;SDS011;1136;51.574;7.706;2023-02-01T00:43:17;24.27;;;12.00;;
2257;SDS011;1136;51.574;7.706;2023-02-01T00:45:45;22.50;;;12.93;;
2257;SDS011;1136;51.574;7.706;2023-02-01T00:48:12;28.70;;;12.40;;
2257;SDS011;1136;51.574;7.706;2023-02-01T00:50:42;29.93;;;11.10;;
2257;SDS011;1136;51.574;7.706;2023-02-01T00:53:09;18.73;;;10.60;;
2257;SDS011;1136;51.574;7.706;2023-02-01T00:55:36;21.93;;;10.80;;
2257;SDS011;1136;51.574;7.706;2023-02-01T00:58:03;16.33;;;9.90;;
2257;SDS011;1136;51.574;7.706;2023-02-01T01:00:32;20.13;;;10.03;;
2257;SDS011;1136;51.574;7.706;2023-02-01T01:02:59;19.67;;;9.83;;
2257;SDS011;1136;51.574;7.706;2023-02-01T01:05:25;19.43;;;9.90;;
2257;SDS011;1136;51.574;7.706;2023-02-01T01:07:54;18.50;;;8.30;;
2257;SDS011;1136;51.574;7.706;2023-02-01T01:10:20;17.87;;;8.50;;
2257;SDS011;1136;51.574;7.706;2023-02-01T01:12:47;13.47;;;7.20;;
2257;SDS011;1136;51.574;7.706;2023-02-01T01:15:14;20.60;;;7.93;;
2257;SDS011;1136;51.574;7.706;2023-02-01T01:17:40;13.57;;;7.40;;
2257;SDS011;1136;51.574;7.706;2023-02-01T01:20:07;26.07;;;8.57;;
2257;SDS011;1136;51.574;7.706;2023-02-01T01:22:34;14.50;;;6.40;;
2257;SDS011;1136;51.574;7.706;2023-02-01T01:25:00;15.83;;;7.27;;
2257;SDS011;1136;51.574;7.706;2023-02-01T01:27:27;14.67;;;6.30;;
2257;SDS011;1136;51.574;7.706;2023-02-01T01:29:54;17.73;;;6.27;;
2257;SDS011;1136;51.574;7.706;2023-02-01T01:32:21;16.57;;;5.93;;
2257;SDS011;1136;51.574;7.706;2023-02-01T01:34:48;14.30;;;6.40;;
2257;SDS011;1136;51.574;7.706;2023-02-01T01:37:14;17.83;;;5.83;;
2257;SDS011;1136;51.574;7.706;2023-02-01T01:39:41;15.50;;;5.07;;
2257;SDS011;1136;51.574;7.706;2023-02-01T01:42:09;17.77;;;5.27;;
2257;SDS011;1136;51.574;7.706;2023-02-01T01:47:50;11.73;;;5.97;;
2257;SDS011;1136;51.574;7.706;2023-02-01T01:50:21;16.40;;;5.60;;
2257;SDS011;1136;51.574;7.706;2023-02-01T01:52:51;18.23;;;5.50;;
2257;SDS011;1136;51.574;7.706;2023-02-01T01:55:19;12.13;;;5.20;;
2257;SDS011;1136;51.574;7.706;2023-02-01T01:57:48;15.47;;;5.40;;
2257;SDS011;1136;51.574;7.706;2023-02-01T02:00:18;18.70;;;6.20;;
2257;SDS011;1136;51.574;7.706;2023-02-01T02:02:47;16.57;;;5.17;;
2257;SDS011;1136;51.574;7.706;2023-02-01T02:05:14;9.27;;;4.20;;
2257;SDS011;1136;51.574;7.706;2023-02-01T02:07:43;16.50;;;4.70;;
2257;SDS011;1136;51.574;7.706;2023-02-01T02:10:13;17.93;;;5.00;;
2257;SDS011;1136;51.574;7.706;2023-02-01T02:12:41;13.30;;;5.40;;
2257;SDS011;1136;51.574;7.706;2023-02-01T02:15:10;9.73;;;4.80;;
2257;SDS011;1136;51.574;7.706;2023-02-01T02:17:41;11.30;;;4.43;;
2257;SDS011;1136;51.574;7.706;2023-02-01T02:45:23;12.30;;;4.60;;
2257;SDS011;1136;51.574;7.706;2023-02-01T02:48:16;10.00;;;5.20;;
2257;SDS011;1136;51.574;7.706;2023-02-01T02:50:54;17.43;;;5.33;;
2257;SDS011;1136;51.574;7.706;2023-02-01T02:54:13;13.63;;;5.10;;
2257;SDS011;1136;51.574;7.706;2023-02-01T02:56:59;11.47;;;4.80;;
2257;SDS011;1136;51.574;7.706;2023-02-01T02:59:47;15.53;;;4.40;;
2257;SDS011;1136;51.574;7.706;2023-02-01T03:02:32;14.03;;;6.30;;
2257;SDS011;1136;51.574;7.706;2023-02-01T03:05:18;14.93;;;4.90;;
2257;SDS011;1136;51.574;7.706;2023-02-01T03:07:53;10.60;;;5.53;;
2257;SDS011;1136;51.574;7.706;2023-02-01T03:10:27;19.27;;;6.20;;
2257;SDS011;1136;51.574;7.706;2023-02-01T03:13:00;12.60;;;4.63;;
2257;SDS011;1136;51.574;7.706;2023-02-01T03:15:39;13.47;;;4.80;;
2257;SDS011;1136;51.574;7.706;2023-02-01T03:18:10;13.73;;;4.80;;
2257;SDS011;1136;51.574;7.706;2023-02-01T03:20:40;10.77;;;4.60;;
2257;SDS011;1136;51.574;7.706;2023-02-01T03:23:10;15.90;;;5.30;;
2257;SDS011;1136;51.574;7.706;2023-02-01T03:25:38;18.70;;;6.07;;
2257;SDS011;1136;51.574;7.706;2023-02-01T03:28:06;13.57;;;4.80;;
2257;SDS011;1136;51.574;7.706;2023-02-01T03:30:39;14.70;;;4.30;;
2257;SDS011;1136;51.574;7.706;2023-02-01T03:33:09;13.47;;;4.73;;
2257;SDS011;1136;51.574;7.706;2023-02-01T03:41:27;12.10;;;4.97;;
2257;SDS011;1136;51.574;7.706;2023-02-01T03:44:09;12.53;;;4.50;;
2257;SDS011;1136;51.574;7.706;2023-02-01T03:46:45;13.40;;;4.40;;
2257;SDS011;1136;51.574;7.706;2023-02-01T03:49:17;11.70;;;4.67;;
2257;SDS011;1136;51.574;7.706;2023-02-01T03:51:47;8.30;;;3.40;;
2257;SDS011;1136;51.574;7.706;2023-02-01T03:54:14;12.87;;;3.97;;
2257;SDS011;1136;51.574;7.706;2023-02-01T03:56:42;15.20;;;4.73;;
2257;SDS011;1136;51.574;7.706;2023-02-01T03:59:11;13.20;;;5.47;;
2257;SDS011;1136;51.574;7.706;2023-02-01T04:01:39;14.13;;;4.43;;
2257;SDS011;1136;51.574;7.706;2023-02-01T04:04:05;11.20;;;4.53;;
2257;SDS011;1136;51.574;7.706;2023-02-01T04:06:32;18.10;;;4.33;;
2257;SDS011;1136;51.574;7.706;2023-02-01T04:08:59;14.93;;;4.40;;
2257;SDS011;1136;51.574;7.706;2023-02-01T04:11:25;20.40;;;5.87;;
2257;SDS011;1136;51.574;7.706;2023-02-01T04:13:53;20.73;;;5.03;;
2257;SDS011;1136;51.574;7.706;2023-02-01T04:16:20;12.70;;;6.13;;
2257;SDS011;1136;51.574;7.706;2023-02-01T04:18:46;13.60;;;4.50;;
2257;SDS011;1136;51.574;7.706;2023-02-01T04:21:13;11.27;;;3.50;;
2257;SDS011;1136;51.574;7.706;2023-02-01T04:23:39;11.20;;;3.77;;
2257;SDS011;1136;51.574;7.706;2023-02-01T04:26:06;11.57;;;4.33;;
2257;SDS011;1136;51.574;7.706;2023-02-01T04:28:32;16.77;;;4.30;;
2257;SDS011;1136;51.574;7.706;2023-02-01T04:30:59;7.83;;;3.53;;
2257;SDS011;1136;51.574;7.706;2023-02-01T04:33:26;15.80;;;4.57;;
2257;SDS011;1136;51.574;7.706;2023-02-01T04:35:53;16.60;;;3.87;;
2257;SDS011;1136;51.574;7.706;2023-02-01T04:38:19;15.43;;;4.20;;
2257;SDS011;1136;51.574;7.706;2023-02-01T04:40:46;19.80;;;4.43;;
2257;SDS011;1136;51.574;7.706;2023-02-01T04:43:14;10.57;;;4.23;;
2257;SDS011;1136;51.574;7.706;2023-02-01T04:45:41;14.93;;;4.30;;
2257;SDS011;1136;51.574;7.706;2023-02-01T04:48:07;15.30;;;3.90;;
2257;SDS011;1136;51.574;7.706;2023-02-01T04:50:34;10.83;;;3.90;;
2257;SDS011;1136;51.574;7.706;2023-02-01T04:53:00;12.37;;;4.47;;
2257;SDS011;1136;51.574;7.706;2023-02-01T04:55:27;13.13;;;4.07;;
2257;SDS011;1136;51.574;7.706;2023-02-01T04:57:54;21.33;;;5.13;;
2257;SDS011;1136;51.574;7.706;2023-02-01T05:00:21;25.50;;;4.60;;
2257;SDS011;1136;51.574;7.706;2023-02-01T05:02:48;11.37;;;4.70;;
2257;SDS011;1136;51.574;7.706;2023-02-01T05:05:14;19.10;;;5.57;;
2257;SDS011;1136;51.574;7.706;2023-02-01T05:07:41;14.73;;;4.57;;
2257;SDS011;1136;51.574;7.706;2023-02-01T05:10:08;22.93;;;4.83;;
2257;SDS011;1136;51.574;7.706;2023-02-01T05:12:34;16.03;;;3.83;;
2257;SDS011;1136;51.574;7.706;2023-02-01T05:15:20;14.47;;;4.37;;
2257;SDS011;1136;51.574;7.706;2023-02-01T05:17:46;13.53;;;3.40;;
2257;SDS011;1136;51.574;7.706;2023-02-01T05:20:13;17.63;;;4.60;;
2257;SDS011;1136;51.574;7.706;2023-02-01T05:22:40;12.50;;;4.57;;
2257;SDS011;1136;51.574;7.706;2023-02-01T05:25:07;14.03;;;4.47;;
2257;SDS011;1136;51.574;7.706;2023-02-01T05:27:34;16.10;;;5.60;;
2257;SDS011;1136;51.574;7.706;2023-02-01T05:30:02;13.77;;;4.30;;
2257;SDS011;1136;51.574;7.706;2023-02-01T05:32:29;19.20;;;4.53;;
2257;SDS011;1136;51.574;7.706;2023-02-01T05:34:56;19.43;;;5.17;;
2257;SDS011;1136;51.574;7.706;2023-02-01T05:37:23;13.93;;;5.00;;
2257;SDS011;1136;51.574;7.706;2023-02-01T05:39:50;13.00;;;5.03;;
2257;SDS011;1136;51.574;7.706;2023-02-01T05:42:17;16.13;;;4.33;;
2257;SDS011;1136;51.574;7.706;2023-02-01T05:44:43;13.80;;;3.70;;
2257;SDS011;1136;51.574;7.706;2023-02-01T05:47:10;19.00;;;5.67;;
2257;SDS011;1136;51.574;7.706;2023-02-01T05:49:36;18.83;;;5.60;;
2257;SDS011;1136;51.574;7.706;2023-02-01T05:52:03;19.53;;;5.30;;
2257;SDS011;1136;51.574;7.706;2023-02-01T05:54:30;13.87;;;5.10;;
2257;SDS011;1136;51.574;7.706;2023-02-01T05:56:57;11.87;;;4.63;;
2257;SDS011;1136;51.574;7.706;2023-02-01T05:59:24;9.77;;;3.87;;
2257;SDS011;1136;51.574;7.706;2023-02-01T06:01:50;17.37;;;4.50;;
2257;SDS011;1136;51.574;7.706;2023-02-01T06:04:17;16.47;;;4.80;;
2257;SDS011;1136;51.574;7.706;2023-02-01T06:06:43;14.07;;;4.87;;
2257;SDS011;1136;51.574;7.706;2023-02-01T06:09:10;14.33;;;4.60;;
2257;SDS011;1136;51.574;7.706;2023-02-01T06:11:36;15.90;;;4.50;;
2257;SDS011;1136;51.574;7.706;2023-02-01T06:14:03;20.80;;;5.70;;
2257;SDS011;1136;51.574;7.706;2023-02-01T06:16:30;10.43;;;4.33;;
2257;SDS011;1136;51.574;7.706;2023-02-01T06:18:57;19.87;;;4.90;;
2257;SDS011;1136;51.574;7.706;2023-02-01T06:21:24;22.43;;;5.20;;
2257;SDS011;1136;51.574;7.706;2023-02-01T06:23:51;17.00;;;4.63;;
2257;SDS011;1136;51.574;7.706;2023-02-01T06:26:18;18.20;;;5.50;;
2257;SDS011;1136;51.574;7.706;2023-02-01T06:28:45;19.30;;;4.53;;
2257;SDS011;1136;51.574;7.706;2023-02-01T06:31:12;12.63;;;4.87;;
2257;SDS011;1136;51.574;7.706;2023-02-01T06:33:38;15.03;;;4.90;;
2257;SDS011;1136;51.574;7.706;2023-02-01T06:36:06;12.40;;;5.70;;
2257;SDS011;1136;51.574;7.706;2023-02-01T06:38:33;14.53;;;4.87;;
2257;SDS011;1136;51.574;7.706;2023-02-01T06:41:03;21.40;;;4.90;;
2257;SDS011;1136;51.574;7.706;2023-02-01T06:43:30;19.23;;;5.23;;
2257;SDS011;1136;51.574;7.706;2023-02-01T06:46:02;7.97;;;4.90;;
2257;SDS011;1136;51.574;7.706;2023-02-01T06:48:30;18.83;;;5.53;;
2257;SDS011;1136;51.574;7.706;2023-02-01T06:50:57;18.43;;;4.50;;
2257;SDS011;1136;51.574;7.706;2023-02-01T06:53:23;16.40;;;5.30;;
2257;SDS011;1136;51.574;7.706;2023-02-01T06:55:51;21.13;;;7.10;;
2257;SDS011;1136;51.574;7.706;2023-02-01T06:58:21;29.50;;;5.90;;
2257;SDS011;1136;51.574;7.706;2023-02-01T07:00:48;12.80;;;4.10;;
2257;SDS011;1136;51.574;7.706;2023-02-01T07:03:15;19.73;;;5.40;;
2257;SDS011;1136;51.574;7.706;2023-02-01T07:05:42;20.50;;;5.20;;
2257;SDS011;1136;51.574;7.706;2023-02-01T07:08:08;16.10;;;5.63;;
2257;SDS011;1136;51.574;7.706;2023-02-01T07:10:35;17.33;;;5.37;;
2257;SDS011;1136;51.574;7.706;2023-02-01T07:13:01;14.30;;;5.40;;
2257;SDS011;1136;51.574;7.706;2023-02-01T07:15:28;26.13;;;5.77;;
2257;SDS011;1136;51.574;7.706;2023-02-01T07:17:55;17.80;;;4.80;;
2257;SDS011;1136;51.574;7.706;2023-02-01T07:20:21;12.97;;;5.00;;
2257;SDS011;1136;51.574;7.706;2023-02-01T07:22:49;21.50;;;5.30;;
2257;SDS011;1136;51.574;7.706;2023-02-01T07:25:21;20.10;;;6.13;;
2257;SDS011;1136;51.574;7.706;2023-02-01T07:27:47;15.90;;;5.00;;
2257;SDS011;1136;51.574;7.706;2023-02-01T07:30:14;18.30;;;5.20;;
2257;SDS011;1136;51.574;7.706;2023-02-01T07:32:41;13.33;;;5.60;;
2257;SDS011;1136;51.574;7.706;2023-02-01T07:35:08;16.23;;;4.63;;
2257;SDS011;1136;51.574;7.706;2023-02-01T07:37:34;12.23;;;5.43;;
2257;SDS011;1136;51.574;7.706;2023-02-01T07:40:01;15.20;;;5.47;;
2257;SDS011;1136;51.574;7.706;2023-02-01T07:42:28;15.57;;;5.13;;
2257;SDS011;1136;51.574;7.706;2023-02-01T07:44:54;17.83;;;6.00;;
2257;SDS011;1136;51.574;7.706;2023-02-01T07:47:21;18.10;;;5.17;;
2257;SDS011;1136;51.574;7.706;2023-02-01T07:49:47;10.13;;;4.70;;
2257;SDS011;1136;51.574;7.706;2023-02-01T07:52:14;19.37;;;6.30;;
2257;SDS011;1136;51.574;7.706;2023-02-01T07:54:44;15.00;;;5.20;;
2257;SDS011;1136;51.574;7.706;2023-02-01T07:57:10;20.07;;;5.27;;
2257;SDS011;1136;51.574;7.706;2023-02-01T07:59:37;12.87;;;5.57;;
2257;SDS011;1136;51.574;7.706;2023-02-01T08:02:24;9.93;;;4.63;;
2257;SDS011;1136;51.574;7.706;2023-02-01T08:04:51;14.50;;;4.90;;
2257;SDS011;1136;51.574;7.706;2023-02-01T08:07:17;20.77;;;5.77;;
2257;SDS011;1136;51.574;7.706;2023-02-01T08:09:44;15.10;;;4.20;;
2257;SDS011;1136;51.574;7.706;2023-02-01T08:12:10;13.23;;;5.83;;
2257;SDS011;1136;51.574;7.706;2023-02-01T08:14:37;23.63;;;5.83;;
2257;SDS011;1136;51.574;7.706;2023-02-01T08:17:04;16.40;;;5.87;;
2257;SDS011;1136;51.574;7.706;2023-02-01T08:19:31;16.83;;;5.60;;
2257;SDS011;1136;51.574;7.706;2023-02-01T08:21:57;12.00;;;5.60;;
2257;SDS011;1136;51.574;7.706;2023-02-01T08:24:25;19.13;;;6.60;;
2257;SDS011;1136;51.574;7.706;2023-02-01T08:26:52;11.00;;;5.47;;
2257;SDS011;1136;51.574;7.706;2023-02-01T08:29:19;14.87;;;6.57;;
2257;SDS011;1136;51.574;7.706;2023-02-01T08:31:45;13.40;;;6.63;;
2257;SDS011;1136;51.574;7.706;2023-02-01T08:34:12;18.17;;;7.67;;
2257;SDS011;1136;51.574;7.706;2023-02-01T08:36:39;15.30;;;6.40;;
2257;SDS011;1136;51.574;7.706;2023-02-01T08:39:06;18.00;;;7.07;;
2257;SDS011;1136;51.574;7.706;2023-02-01T08:41:35;19.37;;;7.40;;
2257;SDS011;1136;51.574;7.706;2023-02-01T08:44:02;23.27;;;6.60;;
2257;SDS011;1136;51.574;7.706;2023-02-01T08:46:28;15.93;;;6.50;;
2257;SDS011;1136;51.574;7.706;2023-02-01T08:48:56;26.77;;;7.43;;
2257;SDS011;1136;51.574;7.706;2023-02-01T08:51:22;15.43;;;7.47;;
2257;SDS011;1136;51.574;7.706;2023-02-01T08:53:49;21.70;;;8.17;;
2257;SDS011;1136;51.574;7.706;2023-02-01T08:56:17;20.13;;;6.67;;
2257;SDS011;1136;51.574;7.706;2023-02-01T08:58:44;15.63;;;7.33;;
2257;SDS011;1136;51.574;7.706;2023-02-01T09:01:12;18.17;;;6.70;;
2257;SDS011;1136;51.574;7.706;2023-02-01T09:03:40;18.40;;;7.30;;
2257;SDS011;1136;51.574;7.706;2023-02-01T09:06:08;19.13;;;6.13;;
2257;SDS011;1136;51.574;7.706;2023-02-01T09:08:36;15.50;;;6.67;;
2257;SDS011;1136;51.574;7.706;2023-02-01T09:11:05;18.30;;;6.53;;
2257;SDS011;1136;51.574;7.706;2023-02-01T09:13:33;16.40;;;6.40;;
2257;SDS011;1136;51.574;7.706;2023-02-01T09:16:01;19.73;;;7.07;;
2257;SDS011;1136;51.574;7.706;2023-02-01T09:18:29;20.67;;;6.20;;
2257;SDS011;1136;51.574;7.706;2023-02-01T09:20:55;15.50;;;7.60;;
2257;SDS011;1136;51.574;7.706;2023-02-01T09:23:22;15.57;;;5.90;;
2257;SDS011;1136;51.574;7.706;2023-02-01T09:25:49;15.40;;;6.67;;
2257;SDS011;1136;51.574;7.706;2023-02-01T09:28:17;16.33;;;7.13;;
2257;SDS011;1136;51.574;7.706;2023-02-01T09:30:44;18.83;;;7.23;;
2257;SDS011;1136;51.574;7.706;2023-02-01T09:33:11;15.50;;;7.30;;
2257;SDS011;1136;51.574;7.706;2023-02-01T09:35:37;17.40;;;6.47;;
2257;SDS011;1136;51.574;7.706;2023-02-01T09:38:04;21.00;;;6.70;;
2257;SDS011;1136;51.574;7.706;2023-02-01T09:40:31;21.93;;;7.03;;
2257;SDS011;1136;51.574;7.706;2023-02-01T09:43:04;18.43;;;6.53;;
2257;SDS011;1136;51.574;7.706;2023-02-01T09:48:33;25.50;;;8.30;;
2257;SDS011;1136;51.574;7.706;2023-02-01T09:51:04;18.90;;;7.10;;
2257;SDS011;1136;51.574;7.706;2023-02-01T09:53:34;14.60;;;6.30;;
2257;SDS011;1136;51.574;7.706;2023-02-01T09:56:04;15.57;;;7.13;;
2257;SDS011;1136;51.574;7.706;2023-02-01T10:01:01;16.17;;;8.27;;
2257;SDS011;1136;51.574;7.706;2023-02-01T10:03:29;19.30;;;6.73;;
2257;SDS011;1136;51.574;7.706;2023-02-01T10:06:01;12.87;;;7.27;;
2257;SDS011;1136;51.574;7.706;2023-02-01T10:08:47;21.37;;;9.00;;
2257;SDS011;1136;51.574;7.706;2023-02-01T10:17:23;17.40;;;8.07;;
2257;SDS011;1136;51.574;7.706;2023-02-01T10:22:45;21.87;;;8.07;;
2257;SDS011;1136;51.574;7.706;2023-02-01T10:28:03;26.53;;;9.27;;
2257;SDS011;1136;51.574;7.706;2023-02-01T10:30:31;22.00;;;8.67;;
2257;SDS011;1136;51.574;7.706;2023-02-01T10:33:15;18.10;;;8.00;;
2257;SDS011;1136;51.574;7.706;2023-02-01T10:35:44;14.23;;;8.50;;
2257;SDS011;1136;51.574;7.706;2023-02-01T10:38:23;16.77;;;8.70;;
2257;SDS011;1136;51.574;7.706;2023-02-01T10:40:52;14.10;;;7.00;;
2257;SDS011;1136;51.574;7.706;2023-02-01T10:43:19;20.93;;;8.20;;
2257;SDS011;1136;51.574;7.706;2023-02-01T10:45:46;11.70;;;7.30;;
2257;SDS011;1136;51.574;7.706;2023-02-01T10:48:12;16.03;;;9.53;;
2257;SDS011;1136;51.574;7.706;2023-02-01T10:55:56;16.60;;;7.77;;
2257;SDS011;1136;51.574;7.706;2023-02-01T10:58:26;17.63;;;7.53;;
2257;SDS011;1136;51.574;7.706;2023-02-01T11:00:58;24.90;;;7.77;;
2257;SDS011;1136;51.574;7.706;2023-02-01T11:05:58;16.33;;;7.80;;
2257;SDS011;1136;51.574;7.706;2023-02-01T11:08:25;16.00;;;8.60;;
2257;SDS011;1136;51.574;7.706;2023-02-01T11:11:02;18.37;;;8.37;;
2257;SDS011;1136;51.574;7.706;2023-02-01T11:13:32;16.80;;;6.40;;
2257;SDS011;1136;51.574;7.706;2023-02-01T11:16:04;14.37;;;6.50;;
2257;SDS011;1136;51.574;7.706;2023-02-01T11:18:33;24.30;;;7.43;;
2257;SDS011;1136;51.574;7.706;2023-02-01T11:21:02;16.30;;;7.20;;
2257;SDS011;1136;51.574;7.706;2023-02-01T11:23:29;29.50;;;7.10;;
2257;SDS011;1136;51.574;7.706;2023-02-01T11:25:58;17.13;;;6.27;;
2257;SDS011;1136;51.574;7.706;2023-02-01T11:28:26;16.00;;;7.30;;
2257;SDS011;1136;51.574;7.706;2023-02-01T11:30:57;22.07;;;8.00;;
2257;SDS011;1136;51.574;7.706;2023-02-01T11:33:30;12.77;;;6.90;;
2257;SDS011;1136;51.574;7.706;2023-02-01T11:36:21;16.93;;;6.93;;
2257;SDS011;1136;51.574;7.706;2023-02-01T11:38:52;17.50;;;7.60;;
2257;SDS011;1136;51.574;7.706;2023-02-01T11:41:25;13.83;;;6.57;;
2257;SDS011;1136;51.574;7.706;2023-02-01T11:43:55;15.37;;;7.67;;
2257;SDS011;1136;51.574;7.706;2023-02-01T11:46:26;15.00;;;6.37;;
2257;SDS011;1136;51.574;7.706;2023-02-01T11:48:55;14.57;;;6.83;;
2257;SDS011;1136;51.574;7.706;2023-02-01T11:51:33;16.93;;;6.23;;
2257;SDS011;1136;51.574;7.706;2023-02-01T11:54:18;11.17;;;5.80;;
2257;SDS011;1136;51.574;7.706;2023-02-01T12:23:21;15.77;;;5.90;;
2257;SDS011;1136;51.574;7.706;2023-02-01T12:29:21;14.10;;;6.43;;
2257;SDS011;1136;51.574;7.706;2023-02-01T12:42:36;13.57;;;7.80;;
2257;SDS011;1136;51.574;7.706;2023-02-01T12:45:11;18.07;;;7.13;;
2257;SDS011;1136;51.574;7.706;2023-02-01T12:47:42;19.13;;;7.40;;
2257;SDS011;1136;51.574;7.706;2023-02-01T12:55:16;11.13;;;6.50;;
2257;SDS011;1136;51.574;7.706;2023-02-01T12:57:49;21.90;;;7.07;;
2257;SDS011;1136;51.574;7.706;2023-02-01T13:00:20;15.57;;;5.63;;
2257;SDS011;1136;51.574;7.706;2023-02-01T13:05:54;12.63;;;5.83;;
2257;SDS011;1136;51.574;7.706;2023-02-01T13:08:29;21.03;;;6.60;;
2257;SDS011;1136;51.574;7.706;2023-02-01T13:11:04;28.97;;;7.93;;
2257;SDS011;1136;51.574;7.706;2023-02-01T13:13:55;20.80;;;6.13;;
2257;SDS011;1136;51.574;7.706;2023-02-01T13:16:28;13.80;;;5.53;;
2257;SDS011;1136;51.574;7.706;2023-02-01T13:19:09;17.13;;;6.50;;
2257;SDS011;1136;51.574;7.706;2023-02-01T13:21:48;27.27;;;8.27;;
2257;SDS011;1136;51.574;7.706;2023-02-01T13:24:27;23.83;;;8.90;;
2257;SDS011;1136;51.574;7.706;2023-02-01T13:26:58;13.00;;;7.70;;
2257;SDS011;1136;51.574;7.706;2023-02-01T13:29:24;17.80;;;7.77;;
2257;SDS011;1136;51.574;7.706;2023-02-01T13:37:44;15.83;;;5.10;;
2257;SDS011;1136;51.574;7.706;2023-02-01T13:45:49;20.87;;;6.63;;
2257;SDS011;1136;51.574;7.706;2023-02-01T13:48:19;12.10;;;5.63;;
2257;SDS011;1136;51.574;7.706;2023-02-01T13:50:53;15.03;;;5.47;;
2257;SDS011;1136;51.574;7.706;2023-02-01T13:54:07;14.33;;;4.50;;
2257;SDS011;1136;51.574;7.706;2023-02-01T13:58:46;14.37;;;4.50;;
2257;SDS011;1136;51.574;7.706;2023-02-01T14:03:47;13.37;;;3.90;;
2257;SDS011;1136;51.574;7.706;2023-02-01T14:11:52;8.70;;;4.73;;
2257;SDS011;1136;51.574;7.706;2023-02-01T14:19:23;16.13;;;4.60;;
2257;SDS011;1136;51.574;7.706;2023-02-01T14:22:37;12.27;;;3.80;;
2257;SDS011;1136;51.574;7.706;2023-02-01T14:24:51;9.93;;;4.27;;
2257;SDS011;1136;51.574;7.706;2023-02-01T14:27:26;15.13;;;4.67;;
2257;SDS011;1136;51.574;7.706;2023-02-01T14:29:58;10.03;;;4.13;;
2257;SDS011;1136;51.574;7.706;2023-02-01T14:32:38;10.10;;;3.60;;
2257;SDS011;1136;51.574;7.706;2023-02-01T14:35:08;14.97;;;3.73;;
2257;SDS011;1136;51.574;7.706;2023-02-01T14:37:44;20.87;;;7.07;;
2257;SDS011;1136;51.574;7.706;2023-02-01T14:47:53;14.03;;;4.37;;
2257;SDS011;1136;51.574;7.706;2023-02-01T14:58:06;12.60;;;5.10;;
2257;SDS011;1136;51.574;7.706;2023-02-01T15:00:47;11.07;;;3.80;;
2257;SDS011;1136;51.574;7.706;2023-02-01T15:09:02;15.20;;;4.47;;
2257;SDS011;1136;51.574;7.706;2023-02-01T15:11:30;18.57;;;4.67;;
2257;SDS011;1136;51.574;7.706;2023-02-01T15:13:57;9.77;;;3.50;;
2257;SDS011;1136;51.574;7.706;2023-02-01T15:16:26;11.63;;;4.27;;
2257;SDS011;1136;51.574;7.706;2023-02-01T15:19:08;11.17;;;5.40;;
2257;SDS011;1136;51.574;7.706;2023-02-01T15:21:44;12.03;;;3.87;;
2257;SDS011;1136;51.574;7.706;2023-02-01T15:24:25;21.20;;;4.40;;
2257;SDS011;1136;51.574;7.706;2023-02-01T15:26:53;9.90;;;3.70;;
2257;SDS011;1136;51.574;7.706;2023-02-01T15:29:22;11.27;;;3.83;;
2257;SDS011;1136;51.574;7.706;2023-02-01T15:31:52;10.87;;;4.10;;
2257;SDS011;1136;51.574;7.706;2023-02-01T15:34:19;11.77;;;4.33;;
2257;SDS011;1136;51.574;7.706;2023-02-01T15:36:46;25.10;;;4.83;;
2257;SDS011;1136;51.574;7.706;2023-02-01T15:39:28;15.53;;;4.37;;
2257;SDS011;1136;51.574;7.706;2023-02-01T15:41:58;13.50;;;4.70;;
2257;SDS011;1136;51.574;7.706;2023-02-01T15:44:32;11.07;;;4.10;;
2257;SDS011;1136;51.574;7.706;2023-02-01T15:47:05;10.63;;;3.50;;
2257;SDS011;1136;51.574;7.706;2023-02-01T15:49:37;11.17;;;3.73;;
2257;SDS011;1136;51.574;7.706;2023-02-01T15:52:12;11.40;;;4.50;;
2257;SDS011;1136;51.574;7.706;2023-02-01T15:54:54;10.80;;;4.23;;
2257;SDS011;1136;51.574;7.706;2023-02-01T15:57:27;17.83;;;4.37;;
2257;SDS011;1136;51.574;7.706;2023-02-01T15:59:57;14.30;;;5.33;;
2257;SDS011;1136;51.574;7.706;2023-02-01T16:02:36;12.60;;;4.90;;
2257;SDS011;1136;51.574;7.706;2023-02-01T16:05:28;14.03;;;4.70;;
2257;SDS011;1136;51.574;7.706;2023-02-01T16:10:45;22.10;;;5.07;;
2257;SDS011;1136;51.574;7.706;2023-02-01T16:13:13;13.93;;;3.90;;
2257;SDS011;1136;51.574;7.706;2023-02-01T16:15:41;9.03;;;4.20;;
2257;SDS011;1136;51.574;7.706;2023-02-01T16:18:10;10.00;;;4.07;;
2257;SDS011;1136;51.574;7.706;2023-02-01T16:20:37;15.63;;;4.53;;
2257;SDS011;1136;51.574;7.706;2023-02-01T16:23:06;14.13;;;5.00;;
2257;SDS011;1136;51.574;7.706;2023-02-01T16:25:33;14.20;;;5.50;;
2257;SDS011;1136;51.574;7.706;2023-02-01T16:28:00;14.30;;;4.80;;
2257;SDS011;1136;51.574;7.706;2023-02-01T16:30:27;13.70;;;4.80;;
2257;SDS011;1136;51.574;7.706;2023-02-01T16:32:54;14.20;;;5.10;;
2257;SDS011;1136;51.574;7.706;2023-02-01T16:35:23;16.50;;;5.00;;
2257;SDS011;1136;51.574;7.706;2023-02-01T16:37:52;18.30;;;4.03;;
2257;SDS011;1136;51.574;7.706;2023-02-01T16:40:18;15.97;;;5.40;;
2257;SDS011;1136;51.574;7.706;2023-02-01T16:42:49;11.00;;;5.00;;
2257;SDS011;1136;51.574;7.706;2023-02-01T16:45:18;18.43;;;6.37;;
2257;SDS011;1136;51.574;7.706;2023-02-01T16:47:48;18.63;;;4.70;;
2257;SDS011;1136;51.574;7.706;2023-02-01T16:50:18;13.13;;;4.70;;
2257;SDS011;1136;51.574;7.706;2023-02-01T16:52:49;21.73;;;4.90;;
2257;SDS011;1136;51.574;7.706;2023-02-01T16:55:17;6.90;;;4.30;;
2257;SDS011;1136;51.574;7.706;2023-02-01T16:57:45;13.10;;;5.83;;
2257;SDS011;1136;51.574;7.706;2023-02-01T17:00:12;8.93;;;5.83;;
2257;SDS011;1136;51.574;7.706;2023-02-01T17:02:50;8.43;;;5.07;;
2257;SDS011;1136;51.574;7.706;2023-02-01T17:05:17;12.73;;;5.00;;
2257;SDS011;1136;51.574;7.706;2023-02-01T17:07:44;16.20;;;7.00;;
2257;SDS011;1136;51.574;7.706;2023-02-01T17:10:23;15.40;;;6.30;;
2257;SDS011;1136;51.574;7.706;2023-02-01T17:13:00;11.40;;;6.77;;
2257;SDS011;1136;51.574;7.706;2023-02-01T17:15:29;10.67;;;5.10;;
2257;SDS011;1136;51.574;7.706;2023-02-01T17:18:00;10.50;;;4.23;;
2257;SDS011;1136;51.574;7.706;2023-02-01T17:20:28;8.30;;;4.07;;
2257;SDS011;1136;51.574;7.706;2023-02-01T17:22:56;7.60;;;3.80;;
2257;SDS011;1136;51.574;7.706;2023-02-01T17:25:22;7.57;;;3.30;;
2257;SDS011;1136;51.574;7.706;2023-02-01T17:27:51;4.30;;;3.60;;
2257;SDS011;1136;51.574;7.706;2023-02-01T17:30:18;6.00;;;4.60;;
2257;SDS011;1136;51.574;7.706;2023-02-01T17:32:44;4.80;;;3.70;;
2257;SDS011;1136;51.574;7.706;2023-02-01T17:35:21;8.10;;;5.20;;
2257;SDS011;1136;51.574;7.706;2023-02-01T17:37:50;8.13;;;4.97;;
2257;SDS011;1136;51.574;7.706;2023-02-01T17:40:17;8.00;;;4.30;;
2257;SDS011;1136;51.574;7.706;2023-02-01T17:42:46;14.47;;;4.80;;
2257;SDS011;1136;51.574;7.706;2023-02-01T17:45:16;8.50;;;4.93;;
2257;SDS011;1136;51.574;7.706;2023-02-01T17:47:51;7.97;;;4.90;;
2257;SDS011;1136;51.574;7.706;2023-02-01T17:50:18;11.10;;;5.20;;
2257;SDS011;1136;51.574;7.706;2023-02-01T17:52:44;14.63;;;5.37;;
2257;SDS011;1136;51.574;7.706;2023-02-01T17:55:18;8.73;;;4.53;;
2257;SDS011;1136;51.574;7.706;2023-02-01T17:57:48;8.23;;;4.70;;